sensor_id;sensor_type;location;lat;lon;timestamp;pressure;altitude;pressure_sealevel;temperature;humidity
69784;BME280;57054;51.978;4.498;2023-02-11T00:00:19;103461.81;;;5.72;100.00
69784;BME280;57054;51.978;4.498;2023-02-11T00:02:45;103460.03;;;5.71;100.00
69784;BME280;57054;51.978;4.498;2023-02-11T00:05:10;103447.03;;;5.71;100.00
69784;BME280;57054;51.978;4.498;2023-02-11T00:07:36;103458.34;;;5.71;100.00
69784;BME280;57054;51.978;4.498;2023-02-11T00:10:03;103447.03;;;5.71;100.00
69784;BME280;57054;51.978;4.498;2023-02-11T00:12:32;103447.91;;;5.70;100.00
69784;BME280;57054;51.978;4.498;2023-02-11T00:14:57;103454.81;;;5.69;100.00
69784;BME280;57054;51.978;4.498;2023-02-11T00:17:23;103452.19;;;5.69;100.00
69784;BME280;57054;51.978;4.498;2023-02-11T00:19:49;103445.31;;;5.70;100.00
69784;BME280;57054;51.978;4.498;2023-02-11T00:22:15;103452.19;;;5.69;100.00
69784;BME280;57054;51.978;4.498;2023-02-11T00:24:40;103435.72;;;5.69;100.00
69784;BME280;57054;51.978;4.498;2023-02-11T00:27:06;103446.13;;;5.69;100.00
69784;BME280;57054;51.978;4.498;2023-02-11T00:29:31;103440.06;;;5.68;99.98
69784;BME280;57054;51.978;4.498;2023-02-11T00:31:57;103447.00;;;5.68;99.95
69784;BME280;57054;51.978;4.498;2023-02-11T00:34:22;103440.88;;;5.67;100.00
69784;BME280;57054;51.978;4.498;2023-02-11T00:36:47;103434.81;;;5.67;100.00
69784;BME280;57054;51.978;4.498;2023-02-11T00:39:13;103422.69;;;5.67;99.90
69784;BME280;57054;51.978;4.498;2023-02-11T00:41:39;103420.09;;;5.67;99.87
69784;BME280;57054;51.978;4.498;2023-02-11T00:44:04;103421.81;;;5.67;99.99
69784;BME280;57054;51.978;4.498;2023-02-11T00:46:30;103416.63;;;5.67;99.77
69784;BME280;57054;51.978;4.498;2023-02-11T00:48:55;103414.00;;;5.65;99.65
69784;BME280;57054;51.978;4.498;2023-02-11T00:51:26;103407.09;;;5.66;99.63
69784;BME280;57054;51.978;4.498;2023-02-11T00:53:51;103419.22;;;5.67;99.72
69784;BME280;57054;51.978;4.498;2023-02-11T00:56:17;103419.22;;;5.67;99.34
69784;BME280;57054;51.978;4.498;2023-02-11T00:58:42;103417.50;;;5.67;99.46
69784;BME280;57054;51.978;4.498;2023-02-11T01:01:08;103415.78;;;5.68;99.38
69784;BME280;57054;51.978;4.498;2023-02-11T01:03:33;103420.13;;;5.69;99.31
69784;BME280;57054;51.978;4.498;2023-02-11T01:05:59;103418.41;;;5.68;99.44
69784;BME280;57054;51.978;4.498;2023-02-11T01:08:25;103427.06;;;5.68;99.35
69784;BME280;57054;51.978;4.498;2023-02-11T01:10:57;103442.69;;;5.70;99.39
69784;BME280;57054;51.978;4.498;2023-02-11T01:13:23;103438.34;;;5.69;99.36
69784;BME280;57054;51.978;4.498;2023-02-11T01:15:48;103438.34;;;5.69;99.39
69784;BME280;57054;51.978;4.498;2023-02-11T01:18:14;103426.19;;;5.69;99.65
69784;BME280;57054;51.978;4.498;2023-02-11T01:20:39;103421.88;;;5.68;99.47
69784;BME280;57054;51.978;4.498;2023-02-11T01:23:04;103412.28;;;5.67;99.53
69784;BME280;57054;51.978;4.498;2023-02-11T01:25:30;103408.00;;;5.68;99.77
69784;BME280;57054;51.978;4.498;2023-02-11T01:27:55;103408.00;;;5.68;99.78
69784;BME280;57054;51.978;4.498;2023-02-11T01:30:21;103420.09;;;5.67;99.78
69784;BME280;57054;51.978;4.498;2023-02-11T01:32:46;103420.97;;;5.66;99.92
69784;BME280;57054;51.978;4.498;2023-02-11T01:35:11;103416.63;;;5.67;100.00
69784;BME280;57054;51.978;4.498;2023-02-11T01:37:37;103414.84;;;5.64;100.00
69784;BME280;57054;51.978;4.498;2023-02-11T01:40:05;103413.94;;;5.64;100.00
69784;BME280;57054;51.978;4.498;2023-02-11T01:42:31;103401.81;;;5.63;100.00
69784;BME280;57054;51.978;4.498;2023-02-11T01:44:59;103400.91;;;5.61;100.00
69784;BME280;57054;51.978;4.498;2023-02-11T01:47:24;103396.47;;;5.56;100.00
69784;BME280;57054;51.978;4.498;2023-02-11T01:50:00;103401.66;;;5.55;100.00
69784;BME280;57054;51.978;4.498;2023-02-11T01:52:35;103394.66;;;5.52;100.00
69784;BME280;57054;51.978;4.498;2023-02-11T01:55:06;103396.31;;;5.49;100.00
69784;BME280;57054;51.978;4.498;2023-02-11T01:57:53;103392.78;;;5.45;100.00
69784;BME280;57054;51.978;4.498;2023-02-11T02:00:36;103402.34;;;5.46;100.00
69784;BME280;57054;51.978;4.498;2023-02-11T02:03:06;103392.72;;;5.44;100.00
69784;BME280;57054;51.978;4.498;2023-02-11T02:10:56;103392.66;;;5.39;100.00
69784;BME280;57054;51.978;4.498;2023-02-11T02:13:26;103387.41;;;5.37;100.00
69784;BME280;57054;51.978;4.498;2023-02-11T02:15:57;103398.63;;;5.36;100.00
69784;BME280;57054;51.978;4.498;2023-02-11T02:38:10;103394.16;;;5.29;100.00
69784;BME280;57054;51.978;4.498;2023-02-11T02:43:09;103408.78;;;5.24;100.00
69784;BME280;57054;51.978;4.498;2023-02-11T02:45:36;103418.34;;;5.27;100.00
69784;BME280;57054;51.978;4.498;2023-02-11T02:48:01;103421.91;;;5.30;100.00
69784;BME280;57054;51.978;4.498;2023-02-11T02:50:35;103421.97;;;5.33;100.00
69784;BME280;57054;51.978;4.498;2023-02-11T02:53:12;103422.06;;;5.38;100.00
69784;BME280;57054;51.978;4.498;2023-02-11T03:09:03;103390.00;;;5.37;100.00
69784;BME280;57054;51.978;4.498;2023-02-11T03:11:30;103396.00;;;5.33;100.00
69784;BME280;57054;51.978;4.498;2023-02-11T03:13:59;103396.78;;;5.31;100.00
69784;BME280;57054;51.978;4.498;2023-02-11T03:16:27;103392.41;;;5.28;100.00
69784;BME280;57054;51.978;4.498;2023-02-11T03:19:04;103398.44;;;5.26;100.00
69784;BME280;57054;51.978;4.498;2023-02-11T03:21:30;103390.59;;;5.24;100.00
69784;BME280;57054;51.978;4.498;2023-02-11T03:24:02;103391.47;;;5.25;100.00
69784;BME280;57054;51.978;4.498;2023-02-11T03:26:37;103395.84;;;5.27;100.00
69784;BME280;57054;51.978;4.498;2023-02-11T03:31:42;103403.63;;;5.27;100.00
69784;BME280;57054;51.978;4.498;2023-02-11T03:36:52;103401.00;;;5.24;100.00
69784;BME280;57054;51.978;4.498;2023-02-11T03:39:24;103391.38;;;5.22;100.00
69784;BME280;57054;51.978;4.498;2023-02-11T03:41:53;103386.19;;;5.22;100.00
69784;BME280;57054;51.978;4.498;2023-02-11T03:44:21;103376.66;;;5.21;100.00
69784;BME280;57054;51.978;4.498;2023-02-11T03:46:51;103374.06;;;5.21;100.00
69784;BME280;57054;51.978;4.498;2023-02-11T03:49:20;103373.16;;;5.18;100.00
69784;BME280;57054;51.978;4.498;2023-02-11T03:51:49;103367.09;;;5.19;100.00
69784;BME280;57054;51.978;4.498;2023-02-11T03:54:18;103365.34;;;5.18;100.00
69784;BME280;57054;51.978;4.498;2023-02-11T03:56:51;103374.06;;;5.21;100.00
69784;BME280;57054;51.978;4.498;2023-02-11T03:59:17;103370.56;;;5.20;100.00
69784;BME280;57054;51.978;4.498;2023-02-11T04:01:43;103368.00;;;5.22;100.00
69784;BME280;57054;51.978;4.498;2023-02-11T04:04:09;103377.53;;;5.21;100.00
69784;BME280;57054;51.978;4.498;2023-02-11T04:06:34;103374.09;;;5.22;100.00
69784;BME280;57054;51.978;4.498;2023-02-11T04:09:00;103372.38;;;5.23;100.00
69784;BME280;57054;51.978;4.498;2023-02-11T04:11:25;103376.69;;;5.22;100.00
69784;BME280;57054;51.978;4.498;2023-02-11T04:13:50;103379.31;;;5.24;100.00
69784;BME280;57054;51.978;4.498;2023-02-11T04:16:16;103379.38;;;5.27;100.00
69784;BME280;57054;51.978;4.498;2023-02-11T04:18:41;103386.34;;;5.28;100.00
69784;BME280;57054;51.978;4.498;2023-02-11T04:21:07;103375.94;;;5.28;100.00
69784;BME280;57054;51.978;4.498;2023-02-11T04:23:32;103381.16;;;5.28;100.00
69784;BME280;57054;51.978;4.498;2023-02-11T04:25:58;103383.75;;;5.29;100.00
69784;BME280;57054;51.978;4.498;2023-02-11T04:28:23;103382.84;;;5.26;100.00
69784;BME280;57054;51.978;4.498;2023-02-11T04:30:49;103381.09;;;5.26;100.00
69784;BME280;57054;51.978;4.498;2023-02-11T04:33:15;103374.19;;;5.27;100.00
69784;BME280;57054;51.978;4.498;2023-02-11T04:35:40;103381.91;;;5.24;100.00
69784;BME280;57054;51.978;4.498;2023-02-11T04:38:06;103381.00;;;5.22;100.00
69784;BME280;57054;51.978;4.498;2023-02-11T04:40:31;103380.09;;;5.19;100.00
69784;BME280;57054;51.978;4.498;2023-02-11T04:42:57;103376.63;;;5.19;100.00
69784;BME280;57054;51.978;4.498;2023-02-11T04:45:22;103381.78;;;5.17;100.00
69784;BME280;57054;51.978;4.498;2023-02-11T04:47:47;103379.19;;;5.17;100.00
69784;BME280;57054;51.978;4.498;2023-02-11T04:50:13;103380.03;;;5.18;100.00
69784;BME280;57054;51.978;4.498;2023-02-11T04:52:38;103381.81;;;5.19;100.00
69784;BME280;57054;51.978;4.498;2023-02-11T04:55:04;103374.94;;;5.21;100.00
69784;BME280;57054;51.978;4.498;2023-02-11T04:57:29;103377.59;;;5.24;100.00
69784;BME280;57054;51.978;4.498;2023-02-11T04:59:54;103369.84;;;5.27;100.00
69784;BME280;57054;51.978;4.498;2023-02-11T05:02:20;103369.84;;;5.27;100.00
69784;BME280;57054;51.978;4.498;2023-02-11T05:04:46;103369.06;;;5.30;100.00
69784;BME280;57054;51.978;4.498;2023-02-11T05:07:11;103361.31;;;5.31;100.00
69784;BME280;57054;51.978;4.498;2023-02-11T05:09:37;103365.63;;;5.32;100.00
69784;BME280;57054;51.978;4.498;2023-02-11T05:12:02;103357.81;;;5.31;100.00
69784;BME280;57054;51.978;4.498;2023-02-11T05:14:28;103359.50;;;5.29;100.00
69784;BME280;57054;51.978;4.498;2023-02-11T05:16:53;103356.00;;;5.27;100.00
69784;BME280;57054;51.978;4.498;2023-02-11T05:19:18;103361.97;;;5.23;100.00
69784;BME280;57054;51.978;4.498;2023-02-11T05:21:44;103374.09;;;5.22;100.00
69784;BME280;57054;51.978;4.498;2023-02-11T05:24:09;103377.53;;;5.21;100.00
69784;BME280;57054;51.978;4.498;2023-02-11T05:26:35;103385.31;;;5.21;100.00
69784;BME280;57054;51.978;4.498;2023-02-11T05:29:00;103373.19;;;5.22;100.00
69784;BME280;57054;51.978;4.498;2023-02-11T05:31:26;103384.50;;;5.22;100.00
69784;BME280;57054;51.978;4.498;2023-02-11T05:33:51;103383.59;;;5.22;100.00
69784;BME280;57054;51.978;4.498;2023-02-11T05:36:17;103395.75;;;5.23;100.00
69784;BME280;57054;51.978;4.498;2023-02-11T05:38:42;103394.88;;;5.24;100.00
69784;BME280;57054;51.978;4.498;2023-02-11T05:41:08;103397.50;;;5.24;100.00
69784;BME280;57054;51.978;4.498;2023-02-11T05:43:34;103395.78;;;5.24;100.00
69784;BME280;57054;51.978;4.498;2023-02-11T05:46:01;103399.25;;;5.25;100.00
69784;BME280;57054;51.978;4.498;2023-02-11T05:48:26;103394.88;;;5.24;100.00
69784;BME280;57054;51.978;4.498;2023-02-11T05:50:52;103398.44;;;5.26;100.00
69784;BME280;57054;51.978;4.498;2023-02-11T05:53:17;103392.38;;;5.27;100.00
69784;BME280;57054;51.978;4.498;2023-02-11T05:55:42;103391.53;;;5.28;100.00
69784;BME280;57054;51.978;4.498;2023-02-11T05:58:08;103386.31;;;5.26;100.00
69784;BME280;57054;51.978;4.498;2023-02-11T06:00:34;103391.53;;;5.28;100.00
69784;BME280;57054;51.978;4.498;2023-02-11T06:02:59;103394.13;;;5.28;100.00
69784;BME280;57054;51.978;4.498;2023-02-11T06:05:25;103395.91;;;5.30;100.00
69784;BME280;57054;51.978;4.498;2023-02-11T06:07:51;103407.25;;;5.34;100.00
69784;BME280;57054;51.978;4.498;2023-02-11T06:10:16;103402.06;;;5.34;100.00
69784;BME280;57054;51.978;4.498;2023-02-11T06:12:41;103396.78;;;5.31;100.00
69784;BME280;57054;51.978;4.498;2023-02-11T06:15:07;103385.44;;;5.27;100.00
69784;BME280;57054;51.978;4.498;2023-02-11T06:17:32;103392.34;;;5.25;100.00
69784;BME280;57054;51.978;4.498;2023-02-11T06:19:59;103383.59;;;5.22;100.00
69784;BME280;57054;51.978;4.498;2023-02-11T06:22:25;103388.81;;;5.23;100.00
69784;BME280;57054;51.978;4.498;2023-02-11T06:24:50;103399.25;;;5.25;100.00
69784;BME280;57054;51.978;4.498;2023-02-11T06:27:16;103398.44;;;5.27;100.00
69784;BME280;57054;51.978;4.498;2023-02-11T06:29:43;103395.84;;;5.27;100.00
69784;BME280;57054;51.978;4.498;2023-02-11T06:32:09;103408.00;;;5.28;100.00
69784;BME280;57054;51.978;4.498;2023-02-11T06:34:34;103403.72;;;5.30;100.00
69784;BME280;57054;51.978;4.498;2023-02-11T06:37:00;103397.69;;;5.33;100.00
69784;BME280;57054;51.978;4.498;2023-02-11T06:39:25;103389.97;;;5.36;100.00
69784;BME280;57054;51.978;4.498;2023-02-11T06:41:51;103402.16;;;5.38;100.00
69784;BME280;57054;51.978;4.498;2023-02-11T06:44:16;103402.13;;;5.37;100.00
69784;BME280;57054;51.978;4.498;2023-02-11T06:46:41;103396.94;;;5.37;100.00
69784;BME280;57054;51.978;4.498;2023-02-11T06:49:07;103404.72;;;5.37;100.00
69784;BME280;57054;51.978;4.498;2023-02-11T06:51:32;103403.88;;;5.38;100.00
69784;BME280;57054;51.978;4.498;2023-02-11T06:53:58;103400.41;;;5.37;100.00
69784;BME280;57054;51.978;4.498;2023-02-11T06:56:23;103410.81;;;5.37;100.00
69784;BME280;57054;51.978;4.498;2023-02-11T06:58:54;103414.22;;;5.36;100.00
69784;BME280;57054;51.978;4.498;2023-02-11T07:01:21;103404.69;;;5.35;100.00
69784;BME280;57054;51.978;4.498;2023-02-11T07:03:47;103405.56;;;5.36;100.00
69784;BME280;57054;51.978;4.498;2023-02-11T07:06:15;103408.13;;;5.34;100.00
69784;BME280;57054;51.978;4.498;2023-02-11T07:08:41;103406.44;;;5.35;100.00
69784;BME280;57054;51.978;4.498;2023-02-11T07:11:19;103410.75;;;5.36;100.00
69784;BME280;57054;51.978;4.498;2023-02-11T07:13:46;103415.91;;;5.34;100.00
69784;BME280;57054;51.978;4.498;2023-02-11T07:16:14;103427.19;;;5.33;100.00
69784;BME280;57054;51.978;4.498;2023-02-11T07:18:39;103423.69;;;5.33;100.00
69784;BME280;57054;51.978;4.498;2023-02-11T07:21:06;103422.81;;;5.32;100.00
69784;BME280;57054;51.978;4.498;2023-02-11T07:23:33;103421.06;;;5.31;100.00
69784;BME280;57054;51.978;4.498;2023-02-11T07:26:03;103424.50;;;5.30;100.00
69784;BME280;57054;51.978;4.498;2023-02-11T07:28:28;103420.13;;;5.29;100.00
69784;BME280;57054;51.978;4.498;2023-02-11T07:30:54;103428.78;;;5.28;100.00
69784;BME280;57054;51.978;4.498;2023-02-11T07:33:19;103427.91;;;5.28;100.00
69784;BME280;57054;51.978;4.498;2023-02-11T07:35:44;103437.44;;;5.29;100.00
69784;BME280;57054;51.978;4.498;2023-02-11T07:38:10;103438.31;;;5.28;100.00
69784;BME280;57054;51.978;4.498;2023-02-11T07:40:35;103438.31;;;5.28;100.00
69784;BME280;57054;51.978;4.498;2023-02-11T07:43:00;103438.31;;;5.28;100.00
69784;BME280;57054;51.978;4.498;2023-02-11T07:45:27;103444.38;;;5.28;100.00
69784;BME280;57054;51.978;4.498;2023-02-11T07:47:52;103447.84;;;5.29;100.00
69784;BME280;57054;51.978;4.498;2023-02-11T07:50:18;103440.03;;;5.29;100.00
69784;BME280;57054;51.978;4.498;2023-02-11T07:52:43;103444.41;;;5.30;100.00
69784;BME280;57054;51.978;4.498;2023-02-11T07:55:09;103445.19;;;5.27;100.00
69784;BME280;57054;51.978;4.498;2023-02-11T07:57:35;103444.34;;;5.27;100.00
69784;BME280;57054;51.978;4.498;2023-02-11T08:00:01;103442.59;;;5.26;100.00
69784;BME280;57054;51.978;4.498;2023-02-11T08:02:27;103448.69;;;5.28;100.00
69784;BME280;57054;51.978;4.498;2023-02-11T08:04:52;103445.25;;;5.29;100.00
69784;BME280;57054;51.978;4.498;2023-02-11T08:07:17;103444.38;;;5.28;100.00
69784;BME280;57054;51.978;4.498;2023-02-11T08:09:43;103451.31;;;5.28;100.00
69784;BME280;57054;51.978;4.498;2023-02-11T08:12:09;103457.38;;;5.28;100.00
69784;BME280;57054;51.978;4.498;2023-02-11T08:14:34;103459.97;;;5.28;100.00
69784;BME280;57054;51.978;4.498;2023-02-11T08:16:59;103472.09;;;5.29;100.00
69784;BME280;57054;51.978;4.498;2023-02-11T08:19:25;103463.47;;;5.30;100.00
69784;BME280;57054;51.978;4.498;2023-02-11T08:21:54;103454.81;;;5.30;100.00
69784;BME280;57054;51.978;4.498;2023-02-11T08:24:20;103463.47;;;5.30;100.00
69784;BME280;57054;51.978;4.498;2023-02-11T08:26:45;103458.34;;;5.33;100.00
69784;BME280;57054;51.978;4.498;2023-02-11T08:29:12;103462.75;;;5.36;100.00
69784;BME280;57054;51.978;4.498;2023-02-11T08:31:40;103465.38;;;5.37;100.00
69784;BME280;57054;51.978;4.498;2023-02-11T08:34:06;103468.84;;;5.38;100.00
69784;BME280;57054;51.978;4.498;2023-02-11T08:36:34;103471.44;;;5.38;100.00
69784;BME280;57054;51.978;4.498;2023-02-11T08:39:03;103469.75;;;5.38;100.00
69784;BME280;57054;51.978;4.498;2023-02-11T08:41:30;103480.16;;;5.40;100.00
69784;BME280;57054;51.978;4.498;2023-02-11T08:43:55;103488.91;;;5.44;100.00
69784;BME280;57054;51.978;4.498;2023-02-11T08:46:21;103488.97;;;5.47;100.00
69784;BME280;57054;51.978;4.498;2023-02-11T08:48:46;103486.47;;;5.50;100.00
69784;BME280;57054;51.978;4.498;2023-02-11T08:51:15;103494.31;;;5.53;100.00
69784;BME280;57054;51.978;4.498;2023-02-11T08:53:41;103500.44;;;5.55;100.00
69784;BME280;57054;51.978;4.498;2023-02-11T08:56:08;103499.63;;;5.57;100.00
69784;BME280;57054;51.978;4.498;2023-02-11T08:58:34;103495.34;;;5.60;100.00
69784;BME280;57054;51.978;4.498;2023-02-11T09:00:59;103494.53;;;5.62;100.00
69784;BME280;57054;51.978;4.498;2023-02-11T09:03:25;103498.91;;;5.65;100.00
69784;BME280;57054;51.978;4.498;2023-02-11T09:05:51;103498.97;;;5.66;100.00
69784;BME280;57054;51.978;4.498;2023-02-11T09:08:18;103503.34;;;5.69;100.00
69784;BME280;57054;51.978;4.498;2023-02-11T09:10:44;103497.31;;;5.70;100.00
69784;BME280;57054;51.978;4.498;2023-02-11T09:13:10;103498.25;;;5.73;100.00
69784;BME280;57054;51.978;4.498;2023-02-11T09:15:35;103499.19;;;5.77;100.00
69784;BME280;57054;51.978;4.498;2023-02-11T09:18:02;103497.59;;;5.84;100.00
69784;BME280;57054;51.978;4.498;2023-02-11T09:20:27;103506.38;;;5.89;100.00
69784;BME280;57054;51.978;4.498;2023-02-11T09:22:53;103511.69;;;5.93;100.00
69784;BME280;57054;51.978;4.498;2023-02-11T09:25:20;103503.16;;;5.99;100.00
69784;BME280;57054;51.978;4.498;2023-02-11T09:27:46;103502.34;;;6.02;100.00
69784;BME280;57054;51.978;4.498;2023-02-11T09:30:11;103504.16;;;6.04;100.00
69784;BME280;57054;51.978;4.498;2023-02-11T09:32:37;103505.91;;;6.07;100.00
69784;BME280;57054;51.978;4.498;2023-02-11T09:35:03;103509.50;;;6.12;100.00
69784;BME280;57054;51.978;4.498;2023-02-11T09:37:28;103513.88;;;6.14;100.00
69784;BME280;57054;51.978;4.498;2023-02-11T09:39:54;103508.75;;;6.18;100.00
69784;BME280;57054;51.978;4.498;2023-02-11T09:45:12;103515.84;;;6.25;100.00
69784;BME280;57054;51.978;4.498;2023-02-11T09:47:50;103519.38;;;6.28;100.00
69784;BME280;57054;51.978;4.498;2023-02-11T09:50:22;103517.69;;;6.30;100.00
69784;BME280;57054;51.978;4.498;2023-02-11T09:57:56;103515.19;;;6.37;100.00
69784;BME280;57054;51.978;4.498;2023-02-11T10:08:42;103521.53;;;6.51;100.00
69784;BME280;57054;51.978;4.498;2023-02-11T10:17:15;103539.06;;;6.60;100.00
69784;BME280;57054;51.978;4.498;2023-02-11T10:22:28;103553.97;;;6.67;100.00
69784;BME280;57054;51.978;4.498;2023-02-11T10:24:57;103554.03;;;6.70;100.00
69784;BME280;57054;51.978;4.498;2023-02-11T10:27:32;103563.69;;;6.76;100.00
69784;BME280;57054;51.978;4.498;2023-02-11T10:30:48;103560.25;;;6.78;100.00
69784;BME280;57054;51.978;4.498;2023-02-11T10:32:50;103561.19;;;6.82;100.00
69784;BME280;57054;51.978;4.498;2023-02-11T10:35:19;103562.97;;;6.84;100.00
69784;BME280;57054;51.978;4.498;2023-02-11T10:37:46;103559.56;;;6.88;100.00
69784;BME280;57054;51.978;4.498;2023-02-11T10:40:29;103568.28;;;6.90;100.00
69784;BME280;57054;51.978;4.498;2023-02-11T10:42:58;103568.31;;;6.92;100.00
69784;BME280;57054;51.978;4.498;2023-02-11T10:45:37;103567.50;;;6.93;100.00
69784;BME280;57054;51.978;4.498;2023-02-11T10:48:04;103571.00;;;6.95;100.00
69784;BME280;57054;51.978;4.498;2023-02-11T10:50:32;103573.63;;;6.98;100.00
69784;BME280;57054;51.978;4.498;2023-02-11T10:53:28;103578.03;;;7.01;100.00
69784;BME280;57054;51.978;4.498;2023-02-11T10:55:55;103581.56;;;7.03;100.00
69784;BME280;57054;51.978;4.498;2023-02-11T10:58:30;103586.78;;;7.04;100.00
69784;BME280;57054;51.978;4.498;2023-02-11T11:00:58;103592.03;;;7.07;100.00
69784;BME280;57054;51.978;4.498;2023-02-11T11:03:26;103599.06;;;7.10;100.00
69784;BME280;57054;51.978;4.498;2023-02-11T11:06:04;103600.00;;;7.14;100.00
69784;BME280;57054;51.978;4.498;2023-02-11T11:08:50;103605.22;;;7.17;100.00
69784;BME280;57054;51.978;4.498;2023-02-11T11:11:20;103600.03;;;7.17;100.00
69784;BME280;57054;51.978;4.498;2023-02-11T11:18:51;103600.97;;;7.22;100.00
69784;BME280;57054;51.978;4.498;2023-02-11T11:21:30;103602.78;;;7.24;100.00
69784;BME280;57054;51.978;4.498;2023-02-11T11:23:59;103596.72;;;7.27;100.00
69784;BME280;57054;51.978;4.498;2023-02-11T11:26:39;103608.09;;;7.30;100.00
69784;BME280;57054;51.978;4.498;2023-02-11T11:29:13;103602.91;;;7.32;100.00
69784;BME280;57054;51.978;4.498;2023-02-11T11:31:50;103609.03;;;7.34;100.00
69784;BME280;57054;51.978;4.498;2023-02-11T11:34:21;103601.22;;;7.36;100.00
69784;BME280;57054;51.978;4.498;2023-02-11T11:36:48;103597.75;;;7.37;100.00
69784;BME280;57054;51.978;4.498;2023-02-11T11:39:27;103608.25;;;7.40;100.00
69784;BME280;57054;51.978;4.498;2023-02-11T11:41:56;103591.72;;;7.39;100.00
69784;BME280;57054;51.978;4.498;2023-02-11T11:44:33;103603.94;;;7.42;100.00
69784;BME280;57054;51.978;4.498;2023-02-11T11:47:16;103599.63;;;7.44;100.00
69784;BME280;57054;51.978;4.498;2023-02-11T11:55:21;103594.41;;;7.44;100.00
69784;BME280;57054;51.978;4.498;2023-02-11T11:57:49;103597.91;;;7.44;100.00
69784;BME280;57054;51.978;4.498;2023-02-11T12:00:16;103589.19;;;7.44;100.00
69784;BME280;57054;51.978;4.498;2023-02-11T12:05:34;103603.97;;;7.43;100.00
69784;BME280;57054;51.978;4.498;2023-02-11T12:10:32;103610.03;;;7.44;100.00
69784;BME280;57054;51.978;4.498;2023-02-11T12:18:29;103618.81;;;7.46;100.00
69784;BME280;57054;51.978;4.498;2023-02-11T12:41:16;103610.13;;;7.48;100.00
69784;BME280;57054;51.978;4.498;2023-02-11T12:44:06;103602.31;;;7.48;100.00
69784;BME280;57054;51.978;4.498;2023-02-11T12:46:45;103607.56;;;7.50;100.00
69784;BME280;57054;51.978;4.498;2023-02-11T12:50:12;103598.88;;;7.51;100.00
69784;BME280;57054;51.978;4.498;2023-02-11T12:52:43;103606.72;;;7.53;100.00
69784;BME280;57054;51.978;4.498;2023-02-11T12:55:24;103609.31;;;7.53;100.00
69784;BME280;57054;51.978;4.498;2023-02-11T12:57:52;103607.63;;;7.53;100.00
69784;BME280;57054;51.978;4.498;2023-02-11T13:00:23;103608.50;;;7.54;100.00
69784;BME280;57054;51.978;4.498;2023-02-11T13:03:10;103608.53;;;7.55;100.00
69784;BME280;57054;51.978;4.498;2023-02-11T13:05:43;103606.78;;;7.56;100.00
69784;BME280;57054;51.978;4.498;2023-02-11T13:08:11;103605.06;;;7.58;100.00
69784;BME280;57054;51.978;4.498;2023-02-11T13:10:40;103608.56;;;7.60;100.00
69784;BME280;57054;51.978;4.498;2023-02-11T13:13:17;103602.53;;;7.61;100.00
69784;BME280;57054;51.978;4.498;2023-02-11T13:15:52;103604.25;;;7.62;100.00
69784;BME280;57054;51.978;4.498;2023-02-11T13:18:38;103596.47;;;7.63;100.00
69784;BME280;57054;51.978;4.498;2023-02-11T13:24:05;103596.56;;;7.68;100.00
69784;BME280;57054;51.978;4.498;2023-02-11T13:26:57;103592.22;;;7.70;100.00
69784;BME280;57054;51.978;4.498;2023-02-11T13:32:22;103589.69;;;7.73;99.56
69784;BME280;57054;51.978;4.498;2023-02-11T13:39:57;103591.47;;;7.77;98.22
69784;BME280;57054;51.978;4.498;2023-02-11T13:42:23;103599.31;;;7.79;97.68
69784;BME280;57054;51.978;4.498;2023-02-11T13:44:48;103581.97;;;7.81;97.85
69784;BME280;57054;51.978;4.498;2023-02-11T13:47:43;103590.66;;;7.81;97.82
69784;BME280;57054;51.978;4.498;2023-02-11T13:50:20;103588.91;;;7.82;96.62
69784;BME280;57054;51.978;4.498;2023-02-11T13:52:59;103581.97;;;7.84;96.76
69784;BME280;57054;51.978;4.498;2023-02-11T13:55:25;103582.00;;;7.85;96.30
69784;BME280;57054;51.978;4.498;2023-02-11T14:16:26;103581.16;;;7.86;95.80
69784;BME280;57054;51.978;4.498;2023-02-11T14:23:53;103584.63;;;7.85;95.93
69784;BME280;57054;51.978;4.498;2023-02-11T14:26:52;103591.53;;;7.83;95.03
69784;BME280;57054;51.978;4.498;2023-02-11T14:29:27;103586.31;;;7.83;94.82
69784;BME280;57054;51.978;4.498;2023-02-11T14:37:34;103572.44;;;7.84;94.77
69784;BME280;57054;51.978;4.498;2023-02-11T14:42:52;103587.19;;;7.84;94.51
69784;BME280;57054;51.978;4.498;2023-02-11T14:45:21;103588.06;;;7.83;94.12
69784;BME280;57054;51.978;4.498;2023-02-11T14:48:14;103582.84;;;7.83;94.00
69784;BME280;57054;51.978;4.498;2023-02-11T14:50:52;103590.69;;;7.83;94.12
69784;BME280;57054;51.978;4.498;2023-02-11T14:53:23;103587.19;;;7.82;94.66
69784;BME280;57054;51.978;4.498;2023-02-11T14:55:51;103601.13;;;7.83;94.62
69784;BME280;57054;51.978;4.498;2023-02-11T14:58:20;103601.97;;;7.82;94.32
69784;BME280;57054;51.978;4.498;2023-02-11T15:00:51;103607.19;;;7.82;94.93
69784;BME280;57054;51.978;4.498;2023-02-11T15:03:45;103608.03;;;7.81;94.99
69784;BME280;57054;51.978;4.498;2023-02-11T15:06:17;103613.25;;;7.81;94.88
69784;BME280;57054;51.978;4.498;2023-02-11T15:11:32;103605.41;;;7.79;94.58
69784;BME280;57054;51.978;4.498;2023-02-11T15:14:06;103608.00;;;7.78;94.62
69784;BME280;57054;51.978;4.498;2023-02-11T15:16:33;103608.00;;;7.78;94.13
69784;BME280;57054;51.978;4.498;2023-02-11T15:19:03;103614.94;;;7.77;94.16
69784;BME280;57054;51.978;4.498;2023-02-11T15:21:32;103615.78;;;7.76;94.52
69784;BME280;57054;51.978;4.498;2023-02-11T15:24:05;103605.31;;;7.75;94.61
69784;BME280;57054;51.978;4.498;2023-02-11T15:26:31;103617.50;;;7.74;94.87
69784;BME280;57054;51.978;4.498;2023-02-11T15:28:56;103616.63;;;7.74;94.73
69784;BME280;57054;51.978;4.498;2023-02-11T15:31:24;103615.72;;;7.72;94.97
69784;BME280;57054;51.978;4.498;2023-02-11T15:33:51;103611.38;;;7.72;95.13
69784;BME280;57054;51.978;4.498;2023-02-11T15:36:18;103618.31;;;7.70;94.85
69784;BME280;57054;51.978;4.498;2023-02-11T15:38:44;103615.72;;;7.70;95.06